sensor_id;sensor_type;location;lat;lon;timestamp;P1;durP1;ratioP1;P2;durP2;ratioP2
35518;SDS011;21627;48.216;16.482;2022-11-22T00:00:41;29.83;;;15.60;;
35518;SDS011;21627;48.216;16.482;2022-11-22T00:03:09;27.53;;;15.87;;
35518;SDS011;21627;48.216;16.482;2022-11-22T00:05:37;33.33;;;16.70;;
35518;SDS011;21627;48.216;16.482;2022-11-22T00:08:04;28.97;;;15.10;;
35518;SDS011;21627;48.216;16.482;2022-11-22T00:10:32;32.17;;;16.23;;
35518;SDS011;21627;48.216;16.482;2022-11-22T00:12:59;31.37;;;16.13;;
35518;SDS011;21627;48.216;16.482;2022-11-22T00:15:27;30.73;;;15.87;;
35518;SDS011;21627;48.216;16.482;2022-11-22T00:17:55;25.57;;;15.10;;
35518;SDS011;21627;48.216;16.482;2022-11-22T00:20:22;28.40;;;15.40;;
35518;SDS011;21627;48.216;16.482;2022-11-22T00:22:49;24.73;;;15.33;;
35518;SDS011;21627;48.216;16.482;2022-11-22T00:25:16;28.87;;;15.30;;
35518;SDS011;21627;48.216;16.482;2022-11-22T00:27:43;26.83;;;14.63;;
35518;SDS011;21627;48.216;16.482;2022-11-22T00:30:10;30.53;;;14.97;;
35518;SDS011;21627;48.216;16.482;2022-11-22T00:32:38;28.90;;;15.10;;
35518;SDS011;21627;48.216;16.482;2022-11-22T00:35:05;27.63;;;14.80;;
35518;SDS011;21627;48.216;16.482;2022-11-22T00:37:32;23.03;;;13.90;;
35518;SDS011;21627;48.216;16.482;2022-11-22T00:40:00;31.20;;;15.73;;
35518;SDS011;21627;48.216;16.482;2022-11-22T00:42:28;25.07;;;14.17;;
35518;SDS011;21627;48.216;16.482;2022-11-22T00:44:55;28.33;;;13.57;;
35518;SDS011;21627;48.216;16.482;2022-11-22T00:47:22;21.87;;;12.70;;
35518;SDS011;21627;48.216;16.482;2022-11-22T00:49:50;28.67;;;12.57;;
35518;SDS011;21627;48.216;16.482;2022-11-22T00:52:17;25.00;;;11.97;;
35518;SDS011;21627;48.216;16.482;2022-11-22T00:54:44;30.53;;;11.37;;
35518;SDS011;21627;48.216;16.482;2022-11-22T00:57:16;22.03;;;11.73;;
35518;SDS011;21627;48.216;16.482;2022-11-22T00:59:43;23.67;;;11.30;;
35518;SDS011;21627;48.216;16.482;2022-11-22T01:02:10;16.27;;;10.53;;
35518;SDS011;21627;48.216;16.482;2022-11-22T01:04:38;21.40;;;11.27;;
35518;SDS011;21627;48.216;16.482;2022-11-22T01:07:05;18.53;;;10.87;;
35518;SDS011;21627;48.216;16.482;2022-11-22T01:09:32;19.77;;;11.07;;
35518;SDS011;21627;48.216;16.482;2022-11-22T01:11:59;21.23;;;11.57;;
35518;SDS011;21627;48.216;16.482;2022-11-22T01:14:26;21.90;;;12.17;;
35518;SDS011;21627;48.216;16.482;2022-11-22T01:16:53;24.77;;;13.43;;
35518;SDS011;21627;48.216;16.482;2022-11-22T01:19:20;38.80;;;14.17;;
35518;SDS011;21627;48.216;16.482;2022-11-22T01:21:47;20.77;;;11.17;;
35518;SDS011;21627;48.216;16.482;2022-11-22T01:24:15;22.50;;;11.10;;
35518;SDS011;21627;48.216;16.482;2022-11-22T01:26:42;20.73;;;11.47;;
35518;SDS011;21627;48.216;16.482;2022-11-22T01:29:09;24.67;;;12.30;;
35518;SDS011;21627;48.216;16.482;2022-11-22T01:31:36;21.17;;;12.07;;
35518;SDS011;21627;48.216;16.482;2022-11-22T01:34:03;23.37;;;12.63;;
35518;SDS011;21627;48.216;16.482;2022-11-22T01:36:31;20.43;;;11.20;;
35518;SDS011;21627;48.216;16.482;2022-11-22T01:38:58;26.83;;;13.40;;
35518;SDS011;21627;48.216;16.482;2022-11-22T01:41:25;22.80;;;13.03;;
35518;SDS011;21627;48.216;16.482;2022-11-22T01:43:52;25.90;;;13.33;;
35518;SDS011;21627;48.216;16.482;2022-11-22T01:46:31;23.83;;;11.80;;
35518;SDS011;21627;48.216;16.482;2022-11-22T01:49:04;27.90;;;13.93;;
35518;SDS011;21627;48.216;16.482;2022-11-22T01:51:49;25.83;;;13.52;;
35518;SDS011;21627;48.216;16.482;2022-11-22T01:54:21;25.10;;;12.43;;
35518;SDS011;21627;48.216;16.482;2022-11-22T01:56:53;22.30;;;11.53;;
35518;SDS011;21627;48.216;16.482;2022-11-22T01:59:25;29.50;;;13.23;;
35518;SDS011;21627;48.216;16.482;2022-11-22T02:01:56;26.07;;;11.87;;
35518;SDS011;21627;48.216;16.482;2022-11-22T02:04:24;25.70;;;13.00;;
35518;SDS011;21627;48.216;16.482;2022-11-22T02:09:28;25.30;;;12.73;;
35518;SDS011;21627;48.216;16.482;2022-11-22T02:11:57;30.90;;;13.57;;
35518;SDS011;21627;48.216;16.482;2022-11-22T02:14:29;24.20;;;12.13;;
35518;SDS011;21627;48.216;16.482;2022-11-22T02:16:56;27.23;;;13.23;;
35518;SDS011;21627;48.216;16.482;2022-11-22T02:28:02;28.40;;;12.77;;
35518;SDS011;21627;48.216;16.482;2022-11-22T02:30:30;23.63;;;12.03;;
35518;SDS011;21627;48.216;16.482;2022-11-22T02:32:57;31.50;;;13.47;;
35518;SDS011;21627;48.216;16.482;2022-11-22T02:35:25;27.17;;;13.23;;
35518;SDS011;21627;48.216;16.482;2022-11-22T02:37:58;30.57;;;14.17;;
35518;SDS011;21627;48.216;16.482;2022-11-22T02:40:33;31.20;;;13.93;;
35518;SDS011;21627;48.216;16.482;2022-11-22T02:43:25;32.22;;;14.20;;
35518;SDS011;21627;48.216;16.482;2022-11-22T02:46:11;28.00;;;13.13;;
35518;SDS011;21627;48.216;16.482;2022-11-22T02:48:46;31.73;;;13.63;;
35518;SDS011;21627;48.216;16.482;2022-11-22T02:51:15;33.50;;;14.27;;
35518;SDS011;21627;48.216;16.482;2022-11-22T02:53:45;35.47;;;14.67;;
35518;SDS011;21627;48.216;16.482;2022-11-22T02:56:14;28.20;;;14.33;;
35518;SDS011;21627;48.216;16.482;2022-11-22T02:58:43;28.90;;;13.43;;
35518;SDS011;21627;48.216;16.482;2022-11-22T03:01:11;38.30;;;16.03;;
35518;SDS011;21627;48.216;16.482;2022-11-22T03:03:39;40.07;;;16.27;;
35518;SDS011;21627;48.216;16.482;2022-11-22T03:06:06;34.23;;;14.73;;
35518;SDS011;21627;48.216;16.482;2022-11-22T03:08:33;34.13;;;15.73;;
35518;SDS011;21627;48.216;16.482;2022-11-22T03:11:00;36.53;;;14.17;;
35518;SDS011;21627;48.216;16.482;2022-11-22T03:13:27;36.77;;;15.63;;
35518;SDS011;21627;48.216;16.482;2022-11-22T03:15:54;36.30;;;15.80;;
35518;SDS011;21627;48.216;16.482;2022-11-22T03:18:21;39.70;;;15.23;;
35518;SDS011;21627;48.216;16.482;2022-11-22T03:20:49;35.00;;;15.13;;
35518;SDS011;21627;48.216;16.482;2022-11-22T03:23:16;36.13;;;15.90;;
35518;SDS011;21627;48.216;16.482;2022-11-22T03:25:43;33.40;;;15.87;;
35518;SDS011;21627;48.216;16.482;2022-11-22T03:28:10;32.13;;;16.10;;
35518;SDS011;21627;48.216;16.482;2022-11-22T03:30:38;41.00;;;15.83;;
35518;SDS011;21627;48.216;16.482;2022-11-22T03:33:07;37.83;;;15.70;;
35518;SDS011;21627;48.216;16.482;2022-11-22T03:35:34;36.13;;;15.13;;
35518;SDS011;21627;48.216;16.482;2022-11-22T03:38:01;38.27;;;16.47;;
35518;SDS011;21627;48.216;16.482;2022-11-22T03:40:29;36.33;;;15.90;;
35518;SDS011;21627;48.216;16.482;2022-11-22T03:43:00;35.33;;;16.80;;
35518;SDS011;21627;48.216;16.482;2022-11-22T03:45:28;33.33;;;15.97;;
35518;SDS011;21627;48.216;16.482;2022-11-22T03:47:56;33.90;;;15.37;;
35518;SDS011;21627;48.216;16.482;2022-11-22T03:50:23;41.57;;;17.37;;
35518;SDS011;21627;48.216;16.482;2022-11-22T03:52:51;33.80;;;15.27;;
35518;SDS011;21627;48.216;16.482;2022-11-22T03:55:18;34.43;;;15.83;;
35518;SDS011;21627;48.216;16.482;2022-11-22T03:57:45;32.90;;;14.73;;
35518;SDS011;21627;48.216;16.482;2022-11-22T04:00:12;40.70;;;16.00;;
35518;SDS011;21627;48.216;16.482;2022-11-22T04:02:40;32.80;;;15.43;;
35518;SDS011;21627;48.216;16.482;2022-11-22T04:05:07;38.03;;;15.00;;
35518;SDS011;21627;48.216;16.482;2022-11-22T04:07:34;34.17;;;15.93;;
35518;SDS011;21627;48.216;16.482;2022-11-22T04:10:02;38.07;;;15.57;;
35518;SDS011;21627;48.216;16.482;2022-11-22T04:12:31;36.85;;;15.40;;
35518;SDS011;21627;48.216;16.482;2022-11-22T04:14:58;35.33;;;14.43;;
35518;SDS011;21627;48.216;16.482;2022-11-22T04:17:42;33.77;;;14.93;;
35518;SDS011;21627;48.216;16.482;2022-11-22T04:23:15;33.03;;;15.40;;
35518;SDS011;21627;48.216;16.482;2022-11-22T04:25:49;33.45;;;14.93;;
35518;SDS011;21627;48.216;16.482;2022-11-22T04:28:22;32.80;;;15.50;;
35518;SDS011;21627;48.216;16.482;2022-11-22T04:31:10;32.00;;;14.37;;
35518;SDS011;21627;48.216;16.482;2022-11-22T04:33:56;34.70;;;16.13;;
35518;SDS011;21627;48.216;16.482;2022-11-22T04:36:23;35.40;;;14.57;;
35518;SDS011;21627;48.216;16.482;2022-11-22T04:38:50;32.27;;;14.93;;
35518;SDS011;21627;48.216;16.482;2022-11-22T04:41:17;31.60;;;14.63;;
35518;SDS011;21627;48.216;16.482;2022-11-22T04:43:44;36.07;;;16.87;;
35518;SDS011;21627;48.216;16.482;2022-11-22T04:46:30;30.45;;;14.60;;
35518;SDS011;21627;48.216;16.482;2022-11-22T04:48:57;32.90;;;15.47;;
35518;SDS011;21627;48.216;16.482;2022-11-22T04:51:24;32.47;;;15.27;;
35518;SDS011;21627;48.216;16.482;2022-11-22T04:54:10;35.88;;;15.82;;
35518;SDS011;21627;48.216;16.482;2022-11-22T04:56:37;30.67;;;14.70;;
35518;SDS011;21627;48.216;16.482;2022-11-22T04:59:04;27.05;;;13.93;;
35518;SDS011;21627;48.216;16.482;2022-11-22T05:01:31;31.83;;;15.60;;
35518;SDS011;21627;48.216;16.482;2022-11-22T05:03:58;30.88;;;14.77;;
35518;SDS011;21627;48.216;16.482;2022-11-22T05:06:25;30.35;;;14.98;;
35518;SDS011;21627;48.216;16.482;2022-11-22T05:08:53;31.23;;;15.18;;
35518;SDS011;21627;48.216;16.482;2022-11-22T05:11:20;29.33;;;14.27;;
35518;SDS011;21627;48.216;16.482;2022-11-22T05:13:47;33.22;;;15.75;;
35518;SDS011;21627;48.216;16.482;2022-11-22T05:16:15;32.20;;;14.38;;
35518;SDS011;21627;48.216;16.482;2022-11-22T05:18:48;27.30;;;14.52;;
35518;SDS011;21627;48.216;16.482;2022-11-22T05:23:53;35.30;;;14.40;;
35518;SDS011;21627;48.216;16.482;2022-11-22T05:26:25;30.70;;;15.38;;
35518;SDS011;21627;48.216;16.482;2022-11-22T05:28:55;31.98;;;14.98;;
35518;SDS011;21627;48.216;16.482;2022-11-22T05:31:25;32.55;;;15.02;;
35518;SDS011;21627;48.216;16.482;2022-11-22T05:33:54;29.80;;;14.68;;
35518;SDS011;21627;48.216;16.482;2022-11-22T05:36:22;30.35;;;14.88;;
35518;SDS011;21627;48.216;16.482;2022-11-22T05:38:50;25.83;;;13.48;;
35518;SDS011;21627;48.216;16.482;2022-11-22T05:41:17;28.08;;;14.18;;
35518;SDS011;21627;48.216;16.482;2022-11-22T05:43:45;27.52;;;14.40;;
35518;SDS011;21627;48.216;16.482;2022-11-22T05:46:13;30.67;;;14.10;;
35518;SDS011;21627;48.216;16.482;2022-11-22T05:48:51;30.73;;;14.93;;
35518;SDS011;21627;48.216;16.482;2022-11-22T05:51:20;28.15;;;14.35;;
35518;SDS011;21627;48.216;16.482;2022-11-22T05:53:59;32.22;;;15.00;;
35518;SDS011;21627;48.216;16.482;2022-11-22T05:56:26;32.38;;;14.48;;
35518;SDS011;21627;48.216;16.482;2022-11-22T05:58:53;27.73;;;14.27;;
35518;SDS011;21627;48.216;16.482;2022-11-22T06:01:21;34.45;;;15.60;;
35518;SDS011;21627;48.216;16.482;2022-11-22T06:03:50;28.10;;;13.93;;
35518;SDS011;21627;48.216;16.482;2022-11-22T06:06:17;27.58;;;14.52;;
35518;SDS011;21627;48.216;16.482;2022-11-22T06:08:45;31.30;;;15.68;;
35518;SDS011;21627;48.216;16.482;2022-11-22T06:11:15;33.90;;;17.45;;
35518;SDS011;21627;48.216;16.482;2022-11-22T06:13:49;29.65;;;14.93;;
35518;SDS011;21627;48.216;16.482;2022-11-22T06:16:19;28.25;;;13.95;;
35518;SDS011;21627;48.216;16.482;2022-11-22T06:18:47;29.20;;;14.30;;
35518;SDS011;21627;48.216;16.482;2022-11-22T06:21:15;29.52;;;14.50;;
35518;SDS011;21627;48.216;16.482;2022-11-22T06:23:45;34.25;;;15.38;;
35518;SDS011;21627;48.216;16.482;2022-11-22T06:26:13;33.05;;;14.90;;
35518;SDS011;21627;48.216;16.482;2022-11-22T06:28:44;31.92;;;15.23;;
35518;SDS011;21627;48.216;16.482;2022-11-22T06:31:13;30.50;;;14.90;;
35518;SDS011;21627;48.216;16.482;2022-11-22T06:33:46;32.33;;;14.50;;
35518;SDS011;21627;48.216;16.482;2022-11-22T06:36:14;28.10;;;14.27;;
35518;SDS011;21627;48.216;16.482;2022-11-22T06:38:47;31.27;;;14.88;;
35518;SDS011;21627;48.216;16.482;2022-11-22T06:41:16;26.88;;;14.73;;
35518;SDS011;21627;48.216;16.482;2022-11-22T06:43:46;27.38;;;14.13;;
35518;SDS011;21627;48.216;16.482;2022-11-22T06:46:16;31.38;;;14.30;;
35518;SDS011;21627;48.216;16.482;2022-11-22T06:48:45;33.08;;;14.70;;
35518;SDS011;21627;48.216;16.482;2022-11-22T06:51:16;34.08;;;15.55;;
35518;SDS011;21627;48.216;16.482;2022-11-22T06:53:53;30.70;;;15.15;;
35518;SDS011;21627;48.216;16.482;2022-11-22T06:56:31;29.67;;;15.55;;
35518;SDS011;21627;48.216;16.482;2022-11-22T06:59:03;24.92;;;13.00;;
35518;SDS011;21627;48.216;16.482;2022-11-22T07:01:32;31.98;;;14.02;;
35518;SDS011;21627;48.216;16.482;2022-11-22T07:04:01;28.75;;;14.13;;
35518;SDS011;21627;48.216;16.482;2022-11-22T07:06:30;28.52;;;14.73;;
35518;SDS011;21627;48.216;16.482;2022-11-22T07:09:05;33.45;;;14.48;;
35518;SDS011;21627;48.216;16.482;2022-11-22T07:11:35;29.52;;;14.23;;
35518;SDS011;21627;48.216;16.482;2022-11-22T07:14:03;29.23;;;14.48;;
35518;SDS011;21627;48.216;16.482;2022-11-22T07:16:35;27.00;;;14.23;;
35518;SDS011;21627;48.216;16.482;2022-11-22T07:19:04;29.05;;;13.98;;
35518;SDS011;21627;48.216;16.482;2022-11-22T07:21:33;26.73;;;13.93;;
35518;SDS011;21627;48.216;16.482;2022-11-22T07:24:02;30.63;;;14.02;;
35518;SDS011;21627;48.216;16.482;2022-11-22T07:26:31;28.92;;;14.80;;
35518;SDS011;21627;48.216;16.482;2022-11-22T07:28:59;26.50;;;13.90;;
35518;SDS011;21627;48.216;16.482;2022-11-22T07:31:26;30.63;;;14.63;;
35518;SDS011;21627;48.216;16.482;2022-11-22T07:33:54;30.80;;;14.50;;
35518;SDS011;21627;48.216;16.482;2022-11-22T07:36:23;26.77;;;15.30;;
35518;SDS011;21627;48.216;16.482;2022-11-22T07:38:50;31.05;;;16.30;;
35518;SDS011;21627;48.216;16.482;2022-11-22T07:41:18;31.30;;;15.50;;
35518;SDS011;21627;48.216;16.482;2022-11-22T07:43:45;27.88;;;14.75;;
35518;SDS011;21627;48.216;16.482;2022-11-22T07:46:20;28.10;;;14.82;;
35518;SDS011;21627;48.216;16.482;2022-11-22T07:48:51;32.45;;;14.63;;
35518;SDS011;21627;48.216;16.482;2022-11-22T07:51:18;30.15;;;16.10;;
35518;SDS011;21627;48.216;16.482;2022-11-22T07:53:46;34.35;;;16.88;;
35518;SDS011;21627;48.216;16.482;2022-11-22T07:56:13;28.55;;;16.52;;
35518;SDS011;21627;48.216;16.482;2022-11-22T07:58:44;33.83;;;16.85;;
35518;SDS011;21627;48.216;16.482;2022-11-22T08:01:12;31.13;;;16.75;;
35518;SDS011;21627;48.216;16.482;2022-11-22T08:03:45;31.13;;;16.15;;
35518;SDS011;21627;48.216;16.482;2022-11-22T08:06:12;32.95;;;17.13;;
35518;SDS011;21627;48.216;16.482;2022-11-22T08:08:41;30.70;;;17.20;;
35518;SDS011;21627;48.216;16.482;2022-11-22T08:11:08;33.38;;;16.65;;
35518;SDS011;21627;48.216;16.482;2022-11-22T08:13:36;34.80;;;17.23;;
35518;SDS011;21627;48.216;16.482;2022-11-22T08:16:08;35.00;;;18.27;;
35518;SDS011;21627;48.216;16.482;2022-11-22T08:18:39;32.17;;;17.03;;
35518;SDS011;21627;48.216;16.482;2022-11-22T08:21:11;27.30;;;15.27;;
35518;SDS011;21627;48.216;16.482;2022-11-22T08:23:40;36.30;;;17.63;;
35518;SDS011;21627;48.216;16.482;2022-11-22T08:26:09;31.97;;;15.47;;
35518;SDS011;21627;48.216;16.482;2022-11-22T08:28:39;36.92;;;16.63;;
35518;SDS011;21627;48.216;16.482;2022-11-22T08:31:12;33.20;;;16.73;;
35518;SDS011;21627;48.216;16.482;2022-11-22T08:33:45;30.83;;;16.83;;
35518;SDS011;21627;48.216;16.482;2022-11-22T08:36:13;36.03;;;18.30;;
35518;SDS011;21627;48.216;16.482;2022-11-22T08:38:40;35.10;;;19.00;;
35518;SDS011;21627;48.216;16.482;2022-11-22T08:41:07;35.10;;;17.43;;
35518;SDS011;21627;48.216;16.482;2022-11-22T08:43:35;31.77;;;16.90;;
35518;SDS011;21627;48.216;16.482;2022-11-22T08:46:03;34.33;;;17.17;;
35518;SDS011;21627;48.216;16.482;2022-11-22T08:48:31;35.43;;;18.43;;
35518;SDS011;21627;48.216;16.482;2022-11-22T08:51:02;34.75;;;18.77;;
35518;SDS011;21627;48.216;16.482;2022-11-22T08:53:38;32.92;;;17.77;;
35518;SDS011;21627;48.216;16.482;2022-11-22T08:56:09;30.52;;;17.30;;
35518;SDS011;21627;48.216;16.482;2022-11-22T08:58:39;39.53;;;19.02;;
35518;SDS011;21627;48.216;16.482;2022-11-22T09:01:11;33.53;;;17.70;;
35518;SDS011;21627;48.216;16.482;2022-11-22T09:03:41;39.50;;;17.85;;
35518;SDS011;21627;48.216;16.482;2022-11-22T09:06:11;36.35;;;18.92;;
35518;SDS011;21627;48.216;16.482;2022-11-22T09:09:00;30.17;;;17.43;;
35518;SDS011;21627;48.216;16.482;2022-11-22T09:11:47;34.15;;;18.67;;
35518;SDS011;21627;48.216;16.482;2022-11-22T09:14:15;31.98;;;18.23;;
35518;SDS011;21627;48.216;16.482;2022-11-22T09:16:42;32.88;;;17.75;;
35518;SDS011;21627;48.216;16.482;2022-11-22T09:19:09;35.40;;;17.92;;
35518;SDS011;21627;48.216;16.482;2022-11-22T09:21:36;40.10;;;19.60;;
35518;SDS011;21627;48.216;16.482;2022-11-22T09:24:03;35.35;;;19.25;;
35518;SDS011;21627;48.216;16.482;2022-11-22T09:26:31;37.72;;;17.70;;
35518;SDS011;21627;48.216;16.482;2022-11-22T09:28:58;34.97;;;18.67;;
35518;SDS011;21627;48.216;16.482;2022-11-22T09:31:25;33.83;;;19.20;;
35518;SDS011;21627;48.216;16.482;2022-11-22T09:33:52;36.72;;;18.35;;
35518;SDS011;21627;48.216;16.482;2022-11-22T09:36:20;34.92;;;18.60;;
35518;SDS011;21627;48.216;16.482;2022-11-22T09:38:51;39.08;;;19.58;;
35518;SDS011;21627;48.216;16.482;2022-11-22T09:50:37;32.08;;;17.45;;
35518;SDS011;21627;48.216;16.482;2022-11-22T09:53:33;36.17;;;19.58;;
35518;SDS011;21627;48.216;16.482;2022-11-22T09:56:11;36.72;;;19.23;;
35518;SDS011;21627;48.216;16.482;2022-11-22T09:58:46;35.22;;;18.40;;
35518;SDS011;21627;48.216;16.482;2022-11-22T10:01:25;31.58;;;18.27;;
35518;SDS011;21627;48.216;16.482;2022-11-22T10:06:52;37.38;;;18.13;;
35518;SDS011;21627;48.216;16.482;2022-11-22T10:09:46;33.80;;;17.58;;
35518;SDS011;21627;48.216;16.482;2022-11-22T10:15:22;38.00;;;17.95;;
35518;SDS011;21627;48.216;16.482;2022-11-22T10:18:21;28.67;;;16.25;;
35518;SDS011;21627;48.216;16.482;2022-11-22T10:21:13;36.58;;;18.58;;
35518;SDS011;21627;48.216;16.482;2022-11-22T10:23:45;35.88;;;18.20;;
35518;SDS011;21627;48.216;16.482;2022-11-22T10:26:19;36.15;;;17.80;;
35518;SDS011;21627;48.216;16.482;2022-11-22T10:28:56;34.92;;;18.15;;
35518;SDS011;21627;48.216;16.482;2022-11-22T10:34:45;34.28;;;17.33;;
35518;SDS011;21627;48.216;16.482;2022-11-22T10:40:18;32.63;;;17.67;;
35518;SDS011;21627;48.216;16.482;2022-11-22T10:43:21;33.45;;;17.80;;
35518;SDS011;21627;48.216;16.482;2022-11-22T10:46:12;35.00;;;17.05;;
35518;SDS011;21627;48.216;16.482;2022-11-22T10:49:05;29.15;;;16.88;;
35518;SDS011;21627;48.216;16.482;2022-11-22T11:01:14;31.23;;;17.17;;
35518;SDS011;21627;48.216;16.482;2022-11-22T11:03:58;33.47;;;17.65;;
35518;SDS011;21627;48.216;16.482;2022-11-22T11:06:48;33.60;;;16.02;;
35518;SDS011;21627;48.216;16.482;2022-11-22T11:09:42;25.83;;;14.35;;
35518;SDS011;21627;48.216;16.482;2022-11-22T11:15:23;29.58;;;15.48;;
35518;SDS011;21627;48.216;16.482;2022-11-22T11:17:58;29.40;;;14.98;;
35518;SDS011;21627;48.216;16.482;2022-11-22T11:20:33;26.25;;;15.20;;
35518;SDS011;21627;48.216;16.482;2022-11-22T11:23:04;23.90;;;14.60;;
35518;SDS011;21627;48.216;16.482;2022-11-22T11:25:44;24.95;;;14.25;;
35518;SDS011;21627;48.216;16.482;2022-11-22T11:28:26;27.23;;;14.05;;
35518;SDS011;21627;48.216;16.482;2022-11-22T11:30:57;25.23;;;12.98;;
35518;SDS011;21627;48.216;16.482;2022-11-22T11:33:36;23.90;;;14.18;;
35518;SDS011;21627;48.216;16.482;2022-11-22T11:36:07;24.45;;;13.48;;
35518;SDS011;21627;48.216;16.482;2022-11-22T11:41:25;24.85;;;13.35;;
35518;SDS011;21627;48.216;16.482;2022-11-22T11:43:57;24.63;;;12.10;;
35518;SDS011;21627;48.216;16.482;2022-11-22T11:46:27;29.55;;;13.32;;
35518;SDS011;21627;48.216;16.482;2022-11-22T11:49:09;22.80;;;11.70;;
35518;SDS011;21627;48.216;16.482;2022-11-22T11:51:40;22.38;;;12.13;;
35518;SDS011;21627;48.216;16.482;2022-11-22T11:54:42;28.33;;;13.07;;
35518;SDS011;21627;48.216;16.482;2022-11-22T11:57:15;23.50;;;12.48;;
35518;SDS011;21627;48.216;16.482;2022-11-22T11:59:57;27.47;;;13.83;;
35518;SDS011;21627;48.216;16.482;2022-11-22T12:02:40;21.20;;;11.93;;
35518;SDS011;21627;48.216;16.482;2022-11-22T12:07:39;27.23;;;15.63;;
35518;SDS011;21627;48.216;16.482;2022-11-22T12:13:42;32.25;;;18.10;;
35518;SDS011;21627;48.216;16.482;2022-11-22T12:16:47;32.97;;;17.45;;
35518;SDS011;21627;48.216;16.482;2022-11-22T12:28:22;30.73;;;18.05;;
35518;SDS011;21627;48.216;16.482;2022-11-22T12:30:56;35.30;;;18.38;;
35518;SDS011;21627;48.216;16.482;2022-11-22T12:33:39;37.47;;;18.83;;
35518;SDS011;21627;48.216;16.482;2022-11-22T12:36:22;36.35;;;18.70;;
35518;SDS011;21627;48.216;16.482;2022-11-22T12:39:21;31.90;;;17.58;;
35518;SDS011;21627;48.216;16.482;2022-11-22T12:41:54;37.95;;;18.58;;
35518;SDS011;21627;48.216;16.482;2022-11-22T12:44:28;43.25;;;18.73;;
35518;SDS011;21627;48.216;16.482;2022-11-22T12:47:08;32.65;;;17.80;;
35518;SDS011;21627;48.216;16.482;2022-11-22T12:49:48;30.73;;;18.13;;
35518;SDS011;21627;48.216;16.482;2022-11-22T12:52:28;32.00;;;17.48;;
35518;SDS011;21627;48.216;16.482;2022-11-22T12:55:16;29.30;;;18.30;;
35518;SDS011;21627;48.216;16.482;2022-11-22T13:09:57;28.10;;;16.42;;
35518;SDS011;21627;48.216;16.482;2022-11-22T13:12:33;29.25;;;16.58;;
35518;SDS011;21627;48.216;16.482;2022-11-22T13:15:04;28.52;;;15.55;;
35518;SDS011;21627;48.216;16.482;2022-11-22T13:17:33;27.13;;;15.65;;
35518;SDS011;21627;48.216;16.482;2022-11-22T13:28:43;23.80;;;14.70;;
35518;SDS011;21627;48.216;16.482;2022-11-22T13:33:50;26.77;;;15.45;;
35518;SDS011;21627;48.216;16.482;2022-11-22T13:39:04;27.55;;;16.30;;
35518;SDS011;21627;48.216;16.482;2022-11-22T13:46:58;28.08;;;18.27;;
35518;SDS011;21627;48.216;16.482;2022-11-22T13:49:38;29.42;;;17.40;;
35518;SDS011;21627;48.216;16.482;2022-11-22T13:57:28;29.25;;;18.65;;
35518;SDS011;21627;48.216;16.482;2022-11-22T14:02:41;31.75;;;16.45;;
35518;SDS011;21627;48.216;16.482;2022-11-22T14:05:22;34.60;;;16.92;;
35518;SDS011;21627;48.216;16.482;2022-11-22T14:08:00;28.88;;;17.23;;
35518;SDS011;21627;48.216;16.482;2022-11-22T14:13:21;25.38;;;15.77;;
35518;SDS011;21627;48.216;16.482;2022-11-22T14:16:17;24.67;;;15.18;;
35518;SDS011;21627;48.216;16.482;2022-11-22T14:22:21;25.63;;;15.73;;
35518;SDS011;21627;48.216;16.482;2022-11-22T14:53:14;22.00;;;14.60;;
35518;SDS011;21627;48.216;16.482;2022-11-22T14:55:56;24.48;;;14.52;;
35518;SDS011;21627;48.216;16.482;2022-11-22T14:58:32;23.80;;;13.30;;
35518;SDS011;21627;48.216;16.482;2022-11-22T15:13:43;21.75;;;12.93;;
35518;SDS011;21627;48.216;16.482;2022-11-22T15:17:01;22.15;;;12.48;;
35518;SDS011;21627;48.216;16.482;2022-11-22T15:19:52;19.73;;;12.20;;
35518;SDS011;21627;48.216;16.482;2022-11-22T15:22:42;20.38;;;13.30;;
35518;SDS011;21627;48.216;16.482;2022-11-22T15:25:31;22.92;;;13.73;;
35518;SDS011;21627;48.216;16.482;2022-11-22T15:28:19;20.15;;;12.98;;
35518;SDS011;21627;48.216;16.482;2022-11-22T15:31:09;20.52;;;13.15;;
35518;SDS011;21627;48.216;16.482;2022-11-22T15:34:00;23.92;;;12.85;;
35518;SDS011;21627;48.216;16.482;2022-11-22T15:39:49;21.63;;;12.55;;
35518;SDS011;21627;48.216;16.482;2022-11-22T15:42:36;19.77;;;13.32;;
35518;SDS011;21627;48.216;16.482;2022-11-22T15:45:24;25.77;;;14.75;;
35518;SDS011;21627;48.216;16.482;2022-11-22T15:48:15;27.15;;;13.43;;
35518;SDS011;21627;48.216;16.482;2022-11-22T15:56:50;26.38;;;14.32;;
35518;SDS011;21627;48.216;16.482;2022-11-22T15:59:40;28.27;;;15.63;;
35518;SDS011;21627;48.216;16.482;2022-11-22T16:02:14;26.45;;;14.73;;
35518;SDS011;21627;48.216;16.482;2022-11-22T16:04:53;29.40;;;16.13;;
35518;SDS011;21627;48.216;16.482;2022-11-22T16:07:52;29.23;;;16.40;;
35518;SDS011;21627;48.216;16.482;2022-11-22T16:10:21;29.85;;;15.98;;
35518;SDS011;21627;48.216;16.482;2022-11-22T16:12:49;24.77;;;15.50;;
35518;SDS011;21627;48.216;16.482;2022-11-22T16:20:36;30.08;;;15.55;;
35518;SDS011;21627;48.216;16.482;2022-11-22T16:23:28;27.33;;;15.52;;
35518;SDS011;21627;48.216;16.482;2022-11-22T16:26:16;33.88;;;17.25;;
35518;SDS011;21627;48.216;16.482;2022-11-22T16:28:51;32.58;;;16.73;;
35518;SDS011;21627;48.216;16.482;2022-11-22T16:31:25;31.63;;;16.67;;
35518;SDS011;21627;48.216;16.482;2022-11-22T16:33:55;30.48;;;17.10;;
35518;SDS011;21627;48.216;16.482;2022-11-22T16:36:26;30.40;;;17.00;;
35518;SDS011;21627;48.216;16.482;2022-11-22T16:38:55;30.65;;;15.88;;
35518;SDS011;21627;48.216;16.482;2022-11-22T16:41:24;31.80;;;17.00;;
35518;SDS011;21627;48.216;16.482;2022-11-22T16:43:55;31.20;;;16.13;;
35518;SDS011;21627;48.216;16.482;2022-11-22T16:46:35;27.92;;;15.05;;
35518;SDS011;21627;48.216;16.482;2022-11-22T16:49:09;32.60;;;17.30;;
35518;SDS011;21627;48.216;16.482;2022-11-22T16:51:47;31.20;;;16.70;;
35518;SDS011;21627;48.216;16.482;2022-11-22T16:54:17;32.00;;;16.95;;
35518;SDS011;21627;48.216;16.482;2022-11-22T16:56:46;29.65;;;15.88;;
35518;SDS011;21627;48.216;16.482;2022-11-22T16:59:15;33.88;;;17.05;;
35518;SDS011;21627;48.216;16.482;2022-11-22T17:01:43;31.15;;;15.95;;
35518;SDS011;21627;48.216;16.482;2022-11-22T17:04:22;27.15;;;15.55;;
35518;SDS011;21627;48.216;16.482;2022-11-22T17:06:51;32.05;;;17.00;;
35518;SDS011;21627;48.216;16.482;2022-11-22T17:09:20;32.03;;;16.25;;
35518;SDS011;21627;48.216;16.482;2022-11-22T17:11:47;28.75;;;16.15;;
35518;SDS011;21627;48.216;16.482;2022-11-22T17:14:17;30.08;;;16.08;;
35518;SDS011;21627;48.216;16.482;2022-11-22T17:16:45;34.20;;;17.70;;
35518;SDS011;21627;48.216;16.482;2022-11-22T17:19:13;33.95;;;16.88;;
35518;SDS011;21627;48.216;16.482;2022-11-22T17:22:02;34.95;;;16.35;;
35518;SDS011;21627;48.216;16.482;2022-11-22T17:24:33;35.67;;;18.67;;
35518;SDS011;21627;48.216;16.482;2022-11-22T17:27:01;30.75;;;16.95;;
35518;SDS011;21627;48.216;16.482;2022-11-22T17:29:30;34.05;;;18.33;;